Terminal Aerodrome Forecast
Issued by NWS Blacksburg, VA

Current Version | Previous Version | Graphics & Text | Print | Product List | Glossary On
Versions: 1 2 3 4 5 6 7 8 9 10 11 12 13 14 15 16 17 18
000
FTUS41 KRNK 280543
TAFBLF
TAF
KBLF 280543Z 2806/2906 10005KT P6SM SCT035 BKN150
     FM280700 09005KT P6SM BKN025
      TEMPO 2809/2813 3/4SM BR OVC004
     FM281400 10007KT P6SM SCT040
     FM290100 11004KT P6SM FEW250=

USA.gov is the U.S. government's official web portal to all federal, state and local government web resources and services.